• Join FlightAware (Why Join?)
  • Login
  • US Flag 
03:52AM EST


 

Airport Tracker/Info


-or-


 

Live Flight TrackerFlight Track Log ✈ FFT182 ✈ 07-May-2013 ✈ KSLC - KDEN

Flight Track Log - Related Links

Times and Time Zones

All times are in EDT time to prevent confusion due to time zone crossing. See the FFT182 flight status page for this flight to view local times or setup timezone preferences in your user account.

Time Position Orientation Groundspeed Altitude Reporting Facility
EDT Latitude Longitude Course Direction KTS MPH feet Rate Location/Type
04:14PM 40.8033 -111.9633 360° North 143 165 5,100  Level Salt Lake Center
04:15PM 40.8203 -111.9633 360° North 140 161 5,500 1,500 Climbing Salt Lake Center
04:16PM 40.8794 -111.9733 353° North 218 251 7,300 2,340 Climbing Salt Lake Center
04:17PM 40.9539 -111.9722 North 273 314 10,300 2,580 Climbing Salt Lake Center
04:18PM 40.9664 -111.8828 79° East 287 330 12,700 2,400 Climbing Salt Lake Center
04:19PM 40.9494 -111.7700 101° East 327 376 15,300 2,700 Climbing Salt Lake Center
04:20PM 40.9300 -111.6519 102° East 334 384 18,200 2,760 Climbing Salt Lake Center
04:21PM 40.9167 -111.4992 97° East 355 409 21,000 2,520 Climbing Salt Lake Center
04:22PM 40.9061 -111.3656 96° East 365 420 23,400 2,340 Climbing Salt Lake Center
04:23PM 40.8903 -111.2306 99° East 373 429 25,800 2,100 Climbing Salt Lake Center
04:24PM 40.8731 -111.0925 99° East 379 436 27,800 1,800 Climbing Salt Lake Center
04:25PM 40.8561 -110.9503 99° East 388 447 29,500 2,040 Climbing Salt Lake Center
04:26PM 40.8383 -110.8072 99° East 395 455 32,000 1,860 Climbing Salt Lake Center
04:27PM 40.8211 -110.6694 99° East 385 443 33,400 960 Climbing Salt Lake Center
04:28PM 40.8031 -110.5167 99° East 400 460 34,000 780 Climbing Salt Lake Center
04:29PM 40.7814 -110.3447 99° East 423 487 35,100 960 Climbing Salt Lake Center
04:30PM 40.7614 -110.1908 100° East 434 499 36,000 960 Climbing Salt Lake Center
04:31PM 40.7417 -110.0392 100° East 438 504 37,100 900 Climbing Salt Lake Center
04:32PM 40.7297 -109.8583 95° East 443 510 37,900 660 Climbing Salt Lake Center
04:33PM 40.7192 -109.7031 95° East 445 512 38,500 480 Climbing Salt Lake Center
04:34PM 40.7050 -109.5181 96° East 454 522 39,000 240 Climbing Salt Lake Center
04:35PM 40.6931 -109.3592 96° East 454 522 39,000  Level Salt Lake Center
04:36PM 40.6794 -109.1825 96° East 458 527 39,000  Level Salt Lake Center
04:37PM 40.6681 -109.0258 95° East 453 521 39,000  Level Salt Lake Center
04:38PM 40.6531 -108.8439 96° East 451 519 39,000  Level Salt Lake Center
04:39PM 40.6453 -108.7494 96° East 452 520 39,000  Level Denver Center
04:40PM 40.6253 -108.5050 96° East 451 519 39,000  Level Salt Lake Center
04:41PM 40.6178 -108.4067 96° East 454 522 39,000  Level Denver Center
04:41PM 40.6122 -108.3469 97° East 455 524 39,000  Level Salt Lake Center
04:42PM 40.5983 -108.1881 97° East 456 525 39,000  Level Salt Lake Center
04:43PM 40.5881 -108.0628 96° East 458 527 39,000  Level Denver Center
04:44PM 40.5742 -107.9028 96° East 459 528 39,000  Level Denver Center
04:45PM 40.5619 -107.7428 96° East 459 528 39,000  Level Denver Center
04:46PM 40.5469 -107.5567 96° East 459 528 39,000  Level Denver Center
04:47PM 40.5339 -107.3953 96° East 461 531 39,000  Level Denver Center
04:49PM 40.5161 -107.1889 96° East 464 534 39,000 -60 Level Denver Center
04:50PM 40.4997 -106.9850 96° East 466 536 38,900 -360 Descending Denver Center
04:51PM 40.4850 -106.8164 96° East 464 534 38,300 -780 Descending Denver Center
04:52PM 40.4700 -106.6464 97° East 465 535 37,400 -1,560 Descending Denver Center
04:53PM 40.4519 -106.4536 97° East 464 534 35,200 -2,520 Descending Denver Center
04:54PM 40.4394 -106.2975 96° East 452 520 32,300 -2,700 Descending Denver Center
04:55PM 40.4214 -106.1192 98° East 449 517 29,700 -2,220 Descending Denver Center
04:56PM 40.3883 -105.9631 105° East 437 503 27,800 -2,100 Descending Denver Center
04:57PM 40.3519 -105.8119 107° East 428 493 25,400 -2,340 Descending Denver Center
04:58PM 40.3139 -105.6661 109° East 420 483 23,100 -2,280 Descending Denver Center
04:59PM 40.2672 -105.5319 114° Southeast 400 460 20,800 -2,400 Descending Denver Center
05:00PM 40.2067 -105.3903 119° Southeast 398 458 18,200 -2,100 Descending Denver Center
05:01PM 40.1708 -105.2978 117° Southeast 375 432 16,500 -1,980 Descending Denver Center
05:02PM 40.1131 -105.1553 118° Southeast 358 412 14,200 -1,740 Descending Denver Center
05:03PM 40.0628 -105.0342 118° Southeast 352 405 13,000 -600 Descending Denver Center
05:04PM 40.0217 -104.9336 118° Southeast 319 367 13,000 -540 Level Denver Center
05:05PM 39.9783 -104.8281 118° Southeast 309 356 12,000 -1,020 Descending Denver Center
05:06PM 39.9017 -104.8019 165° South 286 329 11,000 -540 Descending Denver Center
05:07PM 39.8344 -104.8117 186° South 238 274 11,000 -120 Level Denver Center
05:08PM 39.7675 -104.8264 190° South 229 264 10,800 -780 Descending Denver Center
05:09PM 39.7061 -104.8186 174° South 228 262 9,500 -1,080 Descending Denver Center
05:10PM 39.6508 -104.7711 147° Southeast 224 258 8,600 -780 Descending Denver Center
05:11PM 39.6642 -104.7003 76° East 214 246 8,000 -660 Descending Denver Center
05:12PM 39.7181 -104.6631 28° Northeast 204 235 7,300 -780 Descending Denver Center
05:13PM 39.7714 -104.6614 North 192 221 6,500 -780 Descending Denver Center
05:14PM 39.8181 -104.6608 North 152 175 5,700 -780 Descending Denver Center